Terminal Aerodrome Forecast
Issued by NWS

Home | Current Version | Previous Version | Text Only | Print | Product List | Glossary On
Versions: 1 2 3 4 5 6 7 8 9 10 11 12 13 14 15 16 17 18 19 20 21 22 23 24 25 26 27
266
FTUS45 KLKN 262334
TAFTPH
TAF
KTPH 262334Z 2700/2724 19012KT P6SM OVC080
     FM270400 34006KT P6SM OVC070
     FM271400 35012G20KT P6SM OVC070
     FM271800 35024G34KT P6SM OVC070=

USA.gov is the U.S. government's official web portal to all federal, state and local government web resources and services.